Time;durP1;ratioP1;P1;durP2;ratioP2;P2;SDS_P1;SDS_P2;PMS_P1;PMS_P2;Temp;Humidity;BMP_temperature;BMP_pressure;BME280_temperature;BME280_humidity;BME280_pressure;Samples;Min_cycle;Max_cycle;Signal;HPM_P1;HPM_P2
2021/07/12 06:04:44;;;;;;;;;;;17.60;85.80;;;;;;5043244;24;20311;-75
2021/07/12 06:07:12;;;;;;;;;;;17.60;85.90;;;;;;4858502;29;20292;-75
2021/07/12 06:09:38;;;;;;;;;;;17.60;86.20;;;;;;4862204;29;19931;-74
2021/07/12 06:12:05;;;;;;;;;;;17.60;86.30;;;;;;4864033;29;19927;-75
2021/07/12 06:14:31;;;;;;;;;;;17.60;86.50;;;;;;4855313;29;19980;-74
2021/07/12 06:16:57;;;;;;;;;;;17.60;86.50;;;;;;4856454;29;19932;-74
2021/07/12 06:19:23;;;;;;;;;;;17.60;86.50;;;;;;4855758;29;19928;-73
2021/07/12 06:21:50;;;;;;;;;;;17.60;86.50;;;;;;4858583;29;19928;-73
2021/07/12 06:24:16;;;;;;;;;;;17.50;86.00;;;;;;4856324;29;19980;-72
2021/07/12 06:26:42;;;;;;;;;;;17.40;84.60;;;;;;4855277;29;20008;-73
2021/07/12 06:29:08;;;;;;;;;;;17.40;84.50;;;;;;4857111;29;20014;-72
2021/07/12 06:31:36;;;;;;;;;;;17.30;84.40;;;;;;4859321;29;20376;-74
2021/07/12 06:34:02;;;;;;;;;;;17.30;84.30;;;;;;4859030;29;19951;-73
2021/07/12 06:36:28;;;;;;;;;;;17.30;84.10;;;;;;4859516;29;20018;-74
2021/07/12 06:38:55;;;;;;;;;;;17.30;84.00;;;;;;4861553;29;19976;-74
2021/07/12 06:41:21;;;;;;;;;;;17.30;84.10;;;;;;4859533;29;20431;-74
2021/07/12 06:43:48;;;;;;;;;;;17.20;84.20;;;;;;4859227;29;19928;-74
2021/07/12 06:46:15;;;;;;;;;;;17.20;84.60;;;;;;4859432;29;19999;-73
2021/07/12 06:48:41;;;;;;;;;;;17.10;84.50;;;;;;4858960;29;19939;-74
2021/07/12 06:51:09;;;;;;;;;;;17.10;84.70;;;;;;4850515;29;20376;-74
2021/07/12 06:53:35;;;;;;;;;;;17.00;84.70;;;;;;4855757;29;19928;-74
2021/07/12 06:56:02;;;;;;;;;;;16.90;85.00;;;;;;4856472;29;19928;-76
2021/07/12 06:58:28;;;;;;;;;;;16.90;85.40;;;;;;4858042;29;20399;-74
2021/07/12 07:00:54;;;;;;;;;;;16.80;86.10;;;;;;4858698;29;19928;-73
2021/07/12 07:03:20;;;;;;;;;;;16.80;86.30;;;;;;4858317;29;19928;-73
2021/07/12 07:05:47;;;;;;;;;;;16.80;86.20;;;;;;4858094;29;19934;-73
2021/07/12 07:08:13;;;;;;;;;;;16.80;86.10;;;;;;4858436;29;20303;-73
2021/07/12 07:10:39;;;;;;;;;;;16.80;85.90;;;;;;4856179;29;19928;-74
2021/07/12 07:13:05;;;;;;;;;;;16.90;86.80;;;;;;4857455;29;19928;-73
2021/07/12 07:15:32;;;;;;;;;;;16.90;85.40;;;;;;4858696;29;19928;-73
2021/07/12 07:17:59;;;;;;;;;;;16.80;85.70;;;;;;4858517;29;19928;-73
2021/07/12 07:20:25;;;;;;;;;;;16.80;85.30;;;;;;4857987;29;20277;-74
2021/07/12 07:22:51;;;;;;;;;;;16.90;85.50;;;;;;4856516;29;19924;-73
2021/07/12 07:25:18;;;;;;;;;;;16.90;85.70;;;;;;4858697;29;19928;-73
2021/07/12 07:27:44;;;;;;;;;;;16.90;85.50;;;;;;4858310;29;19928;-73
2021/07/12 07:30:11;;;;;;;;;;;17.00;85.50;;;;;;4858324;29;19928;-73
2021/07/12 07:32:38;;;;;;;;;;;17.00;84.90;;;;;;4858291;29;19928;-73
2021/07/12 07:35:04;;;;;;;;;;;17.00;84.70;;;;;;4857907;29;20381;-73
2021/07/12 07:37:31;;;;;;;;;;;17.10;84.50;;;;;;4858471;29;20018;-74
2021/07/12 07:39:57;;;;;;;;;;;17.10;84.70;;;;;;4857821;29;20055;-74
2021/07/12 07:42:23;;;;;;;;;;;17.20;84.50;;;;;;4857525;29;19927;-72
2021/07/12 07:44:50;;;;;;;;;;;17.20;84.20;;;;;;4857848;29;19983;-72
2021/07/12 07:47:16;;;;;;;;;;;17.20;83.90;;;;;;4872031;29;19928;-71
2021/07/12 07:49:43;;;;;;;;;;;17.20;83.50;;;;;;4857847;29;19928;-71
2021/07/12 07:52:09;;;;;;;;;;;17.30;83.40;;;;;;4857085;29;19927;-71
2021/07/12 07:54:35;;;;;;;;;;;17.30;83.60;;;;;;4857037;29;19932;-71
2021/07/12 07:57:01;;;;;;;;;;;17.30;83.40;;;;;;4849545;29;20068;-71
2021/07/12 07:59:27;;;;;;;;;;;17.30;83.60;;;;;;4857450;29;20322;-72
2021/07/12 08:01:54;;;;;;;;;;;17.40;83.60;;;;;;4857375;29;19975;-71
2021/07/12 08:04:20;;;;;;;;;;;17.40;83.30;;;;;;4857301;29;20418;-71
2021/07/12 08:06:46;;;;;;;;;;;17.40;82.70;;;;;;4857125;29;19928;-71
2021/07/12 08:09:12;;;;;;;;;;;17.40;82.70;;;;;;4857956;29;19963;-71
2021/07/12 08:11:40;;;;;;;;;;;17.30;82.60;;;;;;4859686;29;20489;-71
2021/07/12 08:14:06;;;;;;;;;;;17.30;82.80;;;;;;4857424;29;19976;-71
2021/07/12 08:16:32;;;;;;;;;;;17.20;83.00;;;;;;4857345;29;20015;-71
2021/07/12 08:18:58;;;;;;;;;;;17.10;82.80;;;;;;4857232;29;19958;-71
2021/07/12 08:21:25;;;;;;;;;;;17.00;84.10;;;;;;4857072;29;20011;-71
2021/07/12 08:23:51;;;;;;;;;;;17.00;83.80;;;;;;4857449;29;19932;-71
2021/07/12 08:26:17;;;;;;;;;;;17.00;83.50;;;;;;4856787;29;19928;-71
2021/07/12 08:28:43;;;;;;;;;;;16.90;83.70;;;;;;4856226;29;19935;-71
2021/07/12 08:31:11;;;;;;;;;;;16.90;84.20;;;;;;4856615;29;19939;-71
2021/07/12 08:33:39;;;;;;;;;;;16.90;84.60;;;;;;4857331;29;19927;-71
2021/07/12 08:36:05;;;;;;;;;;;17.00;84.80;;;;;;4856724;29;19927;-71
2021/07/12 08:38:32;;;;;;;;;;;17.10;84.40;;;;;;4857236;29;19935;-71
2021/07/12 08:40:58;;;;;;;;;;;17.10;84.40;;;;;;4856923;29;19935;-71
2021/07/12 08:43:24;;;;;;;;;;;17.10;84.50;;;;;;4856931;29;19927;-71
2021/07/12 08:45:51;;;;;;;;;;;17.10;84.70;;;;;;4857669;29;19951;-71
2021/07/12 08:48:17;;;;;;;;;;;17.10;84.20;;;;;;4856917;29;19928;-71
2021/07/12 08:50:45;;;;;;;;;;;17.10;84.10;;;;;;4857031;29;19927;-71
2021/07/12 08:53:13;;;;;;;;;;;17.10;83.60;;;;;;4856574;29;19983;-71
2021/07/12 08:55:39;;;;;;;;;;;17.10;82.80;;;;;;4856058;29;20913;-71
2021/07/12 08:58:08;;;;;;;;;;;17.20;81.90;;;;;;4856391;29;20464;-71
2021/07/12 09:00:46;;;;;;;;;;;17.20;82.30;;;;;;4856623;29;19928;-71
2021/07/12 09:03:18;;;;;;;;;;;17.20;82.50;;;;;;4856558;29;19928;-71
2021/07/12 09:05:50;;;;;;;;;;;17.20;82.10;;;;;;4856490;29;19975;-71
2021/07/12 09:08:32;;;;;;;;;;;17.30;81.90;;;;;;4856194;29;20414;-71
2021/07/12 09:11:25;;;;;;;;;;;17.30;82.10;;;;;;4858102;29;19961;-71
2021/07/12 09:14:04;;;;;;;;;;;17.30;81.60;;;;;;4852883;29;19932;-71
2021/07/12 09:16:30;;;;;;;;;;;17.40;82.00;;;;;;4856795;29;19948;-71
2021/07/12 09:19:08;;;;;;;;;;;17.40;82.20;;;;;;4856640;29;19994;-71
2021/07/12 09:21:49;;;;;;;;;;;17.50;81.50;;;;;;4849584;29;19971;-71
2021/07/12 09:24:30;;;;;;;;;;;17.60;80.40;;;;;;4853007;29;20413;-71
2021/07/12 09:27:00;;;;;;;;;;;17.50;79.60;;;;;;4856311;29;19932;-71
2021/07/12 09:29:31;;;;;;;;;;;17.50;79.20;;;;;;4856096;29;19928;-71
2021/07/12 09:31:57;;;;;;;;;;;17.60;79.40;;;;;;4856772;29;19928;-71
2021/07/12 09:34:23;;;;;;;;;;;17.50;79.80;;;;;;4856186;29;19935;-71
2021/07/12 09:36:51;;;;;;;;;;;17.40;79.00;;;;;;4856191;29;20316;-71
2021/07/12 09:39:20;;;;;;;;;;;17.40;79.10;;;;;;4856021;29;20407;-71
2021/07/12 09:41:48;;;;;;;;;;;17.30;79.20;;;;;;4856516;29;19936;-71
2021/07/12 09:44:16;;;;;;;;;;;17.40;79.20;;;;;;4856049;29;19928;-71
2021/07/12 09:46:42;;;;;;;;;;;17.40;78.60;;;;;;4855982;29;19928;-71
2021/07/12 09:49:09;;;;;;;;;;;17.40;78.40;;;;;;4856048;29;19931;-71
2021/07/12 09:51:35;;;;;;;;;;;17.50;78.60;;;;;;4854221;29;20459;-71
2021/07/12 09:54:20;;;;;;;;;;;17.50;78.90;;;;;;4846367;29;19935;-71
2021/07/12 09:56:47;;;;;;;;;;;17.50;79.10;;;;;;4854119;29;19928;-71
2021/07/12 09:59:17;;;;;;;;;;;17.60;78.60;;;;;;4856243;29;19988;-71
2021/07/12 10:01:47;;;;;;;;;;;17.70;78.50;;;;;;4855924;29;19935;-71
2021/07/12 10:04:14;;;;;;;;;;;17.70;78.20;;;;;;4856337;29;19928;-71
2021/07/12 10:06:41;;;;;;;;;;;17.70;78.90;;;;;;4859313;29;19928;-71
2021/07/12 10:09:08;;;;;;;;;;;17.80;79.20;;;;;;4859712;29;19951;-71
2021/07/12 10:11:34;;;;;;;;;;;17.80;79.70;;;;;;4863234;29;19927;-72
2021/07/12 10:14:02;;;;;;;;;;;17.90;78.40;;;;;;4858371;29;19931;-72
2021/07/12 10:16:29;;;;;;;;;;;18.00;78.20;;;;;;4872761;29;19935;-71
2021/07/12 10:18:55;;;;;;;;;;;18.10;77.10;;;;;;4859340;29;20293;-71
2021/07/12 10:21:22;;;;;;;;;;;18.20;75.90;;;;;;4859698;29;19972;-71
2021/07/12 10:23:54;;;;;;;;;;;18.10;74.60;;;;;;4859394;29;19950;-71
2021/07/12 10:26:39;;;;;;;;;;;18.10;75.10;;;;;;4859188;29;19939;-71
2021/07/12 10:29:10;;;;;;;;;;;18.20;75.40;;;;;;4859679;29;20311;-71
2021/07/12 10:31:52;;;;;;;;;;;18.40;75.10;;;;;;4859398;29;19935;-71
2021/07/12 10:34:30;;;;;;;;;;;18.60;75.80;;;;;;4858994;29;19928;-72
2021/07/12 10:37:14;;;;;;;;;;;18.80;75.20;;;;;;4859459;29;19979;-72
2021/07/12 10:40:05;;;;;;;;;;;18.90;73.10;;;;;;4858961;29;19931;-71
2021/07/12 10:42:44;;;;;;;;;;;18.80;73.00;;;;;;4850401;29;19927;-72
2021/07/12 10:45:14;;;;;;;;;;;18.80;73.50;;;;;;4856880;29;19924;-72
2021/07/12 10:47:44;;;;;;;;;;;18.70;73.90;;;;;;4859228;29;20322;-71
2021/07/12 10:50:29;;;;;;;;;;;18.60;72.70;;;;;;4857988;29;19991;-72
2021/07/12 10:52:55;;;;;;;;;;;18.60;72.50;;;;;;4859132;29;20042;-72
2021/07/12 10:55:29;;;;;;;;;;;18.60;72.00;;;;;;4858318;29;20027;-72
2021/07/12 10:58:14;;;;;;;;;;;18.60;73.50;;;;;;4859342;29;20691;-72
2021/07/12 11:00:40;;;;;;;;;;;18.60;73.50;;;;;;4851324;29;19924;-72
2021/07/12 11:03:27;;;;;;;;;;;18.70;72.10;;;;;;4858884;29;19927;-71
2021/07/12 11:05:53;;;;;;;;;;;18.80;71.70;;;;;;4858468;29;20308;-71
2021/07/12 11:08:38;;;;;;;;;;;18.90;70.90;;;;;;4858086;29;19939;-71
2021/07/12 11:11:04;;;;;;;;;;;18.90;70.30;;;;;;4860751;29;20010;-71
2021/07/12 11:13:48;;;;;;;;;;;18.90;71.30;;;;;;4862463;29;20439;-72
2021/07/12 11:16:16;;;;;;;;;;;18.80;71.00;;;;;;4856852;29;20304;-72
2021/07/12 11:18:42;;;;;;;;;;;18.80;71.20;;;;;;4858181;29;19932;-72
2021/07/12 11:21:12;;;;;;;;;;;18.80;70.40;;;;;;4858626;29;20007;-72
2021/07/12 11:23:41;;;;;;;;;;;18.70;68.90;;;;;;4858106;29;19935;-72
2021/07/12 11:26:19;;;;;;;;;;;18.80;69.50;;;;;;4858174;29;20416;-72
2021/07/12 11:28:46;;;;;;;;;;;19.00;71.20;;;;;;4858474;29;19928;-72
2021/07/12 11:31:30;;;;;;;;;;;19.10;69.70;;;;;;4858361;29;19989;-72
2021/07/12 11:33:59;;;;;;;;;;;19.20;69.70;;;;;;4858666;29;19975;-72
2021/07/12 11:36:26;;;;;;;;;;;19.30;66.80;;;;;;4857931;29;20455;-72
2021/07/12 11:38:52;;;;;;;;;;;19.10;66.60;;;;;;4858427;29;19939;-72
2021/07/12 11:41:24;;;;;;;;;;;18.90;67.70;;;;;;4858218;29;19932;-72
2021/07/12 11:44:10;;;;;;;;;;;18.90;68.70;;;;;;4858614;29;19928;-72
2021/07/12 11:46:36;;;;;;;;;;;18.80;69.40;;;;;;4856256;29;19971;-72
2021/07/12 11:49:05;;;;;;;;;;;18.90;70.20;;;;;;4858462;29;19928;-72
2021/07/12 11:51:31;;;;;;;;;;;19.10;69.70;;;;;;4856705;29;19932;-72
2021/07/12 11:53:57;;;;;;;;;;;19.20;69.20;;;;;;4857556;29;19939;-70
2021/07/12 11:56:23;;;;;;;;;;;19.30;68.50;;;;;;4856733;29;20447;-71
2021/07/12 11:58:59;;;;;;;;;;;19.50;69.00;;;;;;4857930;29;19928;-71
2021/07/12 12:01:26;;;;;;;;;;;19.70;69.70;;;;;;4857991;29;20383;-71
2021/07/12 12:03:59;;;;;;;;;;;20.00;68.30;;;;;;4857503;29;19932;-71
2021/07/12 12:06:25;;;;;;;;;;;20.20;67.00;;;;;;4856977;29;19928;-71
2021/07/12 12:09:01;;;;;;;;;;;20.40;66.40;;;;;;4857750;29;20080;-71
2021/07/12 12:11:28;;;;;;;;;;;20.60;65.00;;;;;;4862413;29;19928;-71
2021/07/12 12:13:55;;;;;;;;;;;20.60;65.40;;;;;;4858202;29;19928;-71
2021/07/12 12:16:29;;;;;;;;;;;20.70;65.00;;;;;;4857523;29;19932;-71
2021/07/12 12:18:55;;;;;;;;;;;20.80;63.80;;;;;;4857540;29;19944;-71
2021/07/12 12:21:23;;;;;;;;;;;20.90;60.80;;;;;;4856994;29;19932;-71
2021/07/12 12:23:49;;;;;;;;;;;20.90;60.70;;;;;;4857275;29;20430;-71
2021/07/12 12:26:23;;;;;;;;;;;20.80;60.50;;;;;;4856466;29;20050;-71
2021/07/12 12:28:51;;;;;;;;;;;20.70;60.90;;;;;;4857055;29;19927;-71
2021/07/12 12:31:19;;;;;;;;;;;20.60;62.00;;;;;;4855628;29;19947;-71
2021/07/12 12:33:45;;;;;;;;;;;20.50;61.90;;;;;;4857100;29;19928;-71
2021/07/12 12:36:13;;;;;;;;;;;20.60;62.10;;;;;;4856513;29;19947;-71
2021/07/12 12:38:51;;;;;;;;;;;20.60;60.50;;;;;;4856932;29;19935;-71
2021/07/12 12:41:18;;;;;;;;;;;20.60;63.20;;;;;;4857119;29;20404;-71
2021/07/12 12:43:57;;;;;;;;;;;20.80;63.50;;;;;;4857324;29;19931;-71
2021/07/12 12:46:23;;;;;;;;;;;20.90;60.40;;;;;;4856650;29;20365;-71
2021/07/12 12:48:50;;;;;;;;;;;20.90;58.90;;;;;;4856865;29;19932;-71
2021/07/12 12:51:30;;;;;;;;;;;21.00;60.20;;;;;;4857037;29;19928;-71
2021/07/12 12:53:56;;;;;;;;;;;21.00;59.30;;;;;;4856847;29;19985;-71
2021/07/12 12:56:22;;;;;;;;;;;21.10;58.80;;;;;;4856288;29;20315;-71
2021/07/12 12:58:55;;;;;;;;;;;21.10;59.40;;;;;;4856360;29;19928;-71
2021/07/12 13:01:27;;;;;;;;;;;21.20;58.50;;;;;;4857209;29;19936;-71
2021/07/12 13:04:02;;;;;;;;;;;21.30;59.40;;;;;;4856963;29;19931;-71
2021/07/12 13:06:35;;;;;;;;;;;21.40;58.40;;;;;;4859788;29;20068;-71
2021/07/12 13:09:02;;;;;;;;;;;21.50;56.70;;;;;;4859450;29;20316;-70
2021/07/12 13:11:29;;;;;;;;;;;21.40;56.60;;;;;;4862461;29;19973;-72
2021/07/12 13:13:55;;;;;;;;;;;21.40;57.90;;;;;;4859966;29;19931;-71
2021/07/12 13:16:21;;;;;;;;;;;21.40;58.40;;;;;;4859516;29;19983;-72
2021/07/12 13:18:50;;;;;;;;;;;21.40;57.50;;;;;;4858352;29;19932;-71
2021/07/12 13:21:16;;;;;;;;;;;21.50;57.70;;;;;;4842920;29;19924;-71
2021/07/12 13:23:46;;;;;;;;;;;21.50;57.40;;;;;;4848315;29;19975;-71
2021/07/12 13:26:12;;;;;;;;;;;21.50;56.50;;;;;;4858107;29;20303;-71
2021/07/12 13:28:39;;;;;;;;;;;21.50;55.70;;;;;;4859587;29;19943;-72
2021/07/12 13:31:05;;;;;;;;;;;21.50;57.40;;;;;;4859179;29;20439;-71
2021/07/12 13:33:31;;;;;;;;;;;21.50;58.20;;;;;;4858871;29;19931;-71
2021/07/12 13:35:57;;;;;;;;;;;21.70;57.30;;;;;;4859469;29;19931;-71
2021/07/12 13:38:24;;;;;;;;;;;21.80;56.80;;;;;;4858966;29;19965;-71
2021/07/12 13:40:50;;;;;;;;;;;21.80;55.70;;;;;;4859033;29;20065;-71
2021/07/12 13:43:16;;;;;;;;;;;21.70;55.90;;;;;;4859141;29;19924;-72
2021/07/12 13:45:43;;;;;;;;;;;21.60;56.60;;;;;;4859647;29;19927;-71
2021/07/12 13:48:10;;;;;;;;;;;21.60;55.90;;;;;;4858779;29;20409;-71
2021/07/12 13:50:37;;;;;;;;;;;21.60;54.50;;;;;;4850352;29;19981;-72
2021/07/12 13:53:04;;;;;;;;;;;21.50;55.50;;;;;;4855106;29;19963;-71
2021/07/12 13:55:31;;;;;;;;;;;21.50;56.30;;;;;;4858397;29;19975;-72
2021/07/12 13:57:58;;;;;;;;;;;21.60;54.90;;;;;;4859061;29;19928;-71
2021/07/12 14:00:26;;;;;;;;;;;21.50;53.80;;;;;;4858252;29;19924;-71
2021/07/12 14:02:52;;;;;;;;;;;21.50;54.80;;;;;;4857707;29;20273;-72
2021/07/12 14:05:19;;;;;;;;;;;21.40;55.50;;;;;;4858795;29;20023;-71
2021/07/12 14:07:46;;;;;;;;;;;21.50;57.60;;;;;;4859029;29;19924;-71
2021/07/12 14:10:14;;;;;;;;;;;21.60;58.30;;;;;;4859045;29;20403;-71
2021/07/12 14:12:41;;;;;;;;;;;21.70;58.40;;;;;;4863900;29;19924;-71
2021/07/12 14:15:08;;;;;;;;;;;21.80;54.90;;;;;;4859241;29;19979;-71
2021/07/12 14:17:35;;;;;;;;;;;21.90;54.10;;;;;;4858887;29;19924;-71
2021/07/12 14:20:02;;;;;;;;;;;22.00;55.60;;;;;;4859272;29;20011;-71
2021/07/12 14:22:28;;;;;;;;;;;21.90;54.20;;;;;;4858633;29;19935;-71
2021/07/12 14:24:54;;;;;;;;;;;21.90;55.40;;;;;;4859233;29;19931;-71
2021/07/12 14:27:20;;;;;;;;;;;21.80;54.10;;;;;;4859280;29;19972;-71
2021/07/12 14:29:46;;;;;;;;;;;21.70;53.10;;;;;;4855639;29;20360;-71
2021/07/12 14:32:13;;;;;;;;;;;21.60;53.90;;;;;;4851363;29;19935;-71
2021/07/12 14:34:40;;;;;;;;;;;21.50;54.30;;;;;;4858513;29;19931;-71
2021/07/12 14:37:06;;;;;;;;;;;21.50;55.90;;;;;;4858889;29;19940;-71
2021/07/12 14:39:32;;;;;;;;;;;21.60;56.00;;;;;;4858722;29;20509;-71
2021/07/12 14:41:59;;;;;;;;;;;21.60;54.50;;;;;;4859209;29;19924;-71
2021/07/12 14:44:25;;;;;;;;;;;21.70;52.60;;;;;;4859116;29;19931;-72
2021/07/12 14:46:51;;;;;;;;;;;21.70;53.40;;;;;;4858629;29;19931;-71
2021/07/12 14:49:18;;;;;;;;;;;21.70;52.70;;;;;;4859181;29;19932;-71
2021/07/12 14:51:44;;;;;;;;;;;21.70;53.60;;;;;;4861810;29;19976;-71
2021/07/12 14:54:10;;;;;;;;;;;21.70;52.10;;;;;;4862374;29;20022;-71
2021/07/12 14:56:36;;;;;;;;;;;21.60;50.90;;;;;;4861804;29;19932;-71
2021/07/12 14:59:02;;;;;;;;;;;21.60;50.80;;;;;;4861713;29;19931;-71
2021/07/12 15:01:28;;;;;;;;;;;21.60;51.40;;;;;;4861652;29;19977;-71
2021/07/12 15:03:54;;;;;;;;;;;21.60;52.00;;;;;;4861348;29;20027;-71
2021/07/12 15:06:21;;;;;;;;;;;21.60;50.70;;;;;;4861939;29;19975;-71
2021/07/12 15:08:47;;;;;;;;;;;21.60;49.80;;;;;;4861538;29;19963;-71
2021/07/12 15:11:13;;;;;;;;;;;21.60;50.50;;;;;;4864557;29;20063;-71
2021/07/12 15:13:39;;;;;;;;;;;21.50;51.40;;;;;;4861465;29;20441;-71
2021/07/12 15:16:05;;;;;;;;;;;21.60;52.10;;;;;;4861630;29;19932;-71
2021/07/12 15:18:31;;;;;;;;;;;21.60;52.30;;;;;;4846569;29;19947;-71
2021/07/12 15:20:58;;;;;;;;;;;21.70;51.30;;;;;;4861458;29;20025;-71
2021/07/12 15:23:24;;;;;;;;;;;21.70;50.50;;;;;;4855621;29;19967;-71
2021/07/12 15:25:50;;;;;;;;;;;21.70;49.80;;;;;;4861547;29;20009;-71
2021/07/12 15:28:16;;;;;;;;;;;21.70;49.60;;;;;;4861750;29;19951;-71
2021/07/12 15:30:42;;;;;;;;;;;21.70;49.80;;;;;;4861136;29;20388;-71
2021/07/12 15:33:08;;;;;;;;;;;21.60;49.70;;;;;;4861517;29;20014;-71
2021/07/12 15:35:34;;;;;;;;;;;21.60;50.90;;;;;;4861440;29;20019;-71
2021/07/12 15:38:01;;;;;;;;;;;21.60;50.80;;;;;;4861350;29;19924;-70
2021/07/12 15:40:27;;;;;;;;;;;21.60;51.60;;;;;;4861465;29;19924;-71
2021/07/12 15:42:53;;;;;;;;;;;21.60;51.90;;;;;;4861267;29;20014;-71
2021/07/12 15:45:19;;;;;;;;;;;21.70;51.40;;;;;;4860992;29;20412;-71
2021/07/12 15:47:45;;;;;;;;;;;21.70;52.20;;;;;;4861297;29;19975;-71
2021/07/12 15:50:12;;;;;;;;;;;21.60;51.90;;;;;;4847908;29;20370;-72
2021/07/12 15:52:38;;;;;;;;;;;21.60;50.70;;;;;;4861282;29;19924;-71
2021/07/12 15:55:05;;;;;;;;;;;21.60;50.50;;;;;;4860983;29;19984;-71
2021/07/12 15:57:31;;;;;;;;;;;21.60;51.50;;;;;;4861277;29;20007;-71
2021/07/12 15:59:58;;;;;;;;;;;21.60;52.10;;;;;;4845441;29;19924;-72
2021/07/12 16:02:24;;;;;;;;;;;21.60;52.50;;;;;;4860569;29;19935;-71
2021/07/12 16:04:50;;;;;;;;;;;21.60;52.80;;;;;;4855172;29;19960;-71
2021/07/12 16:07:16;;;;;;;;;;;21.60;52.70;;;;;;4860818;29;19963;-71
2021/07/12 16:09:43;;;;;;;;;;;21.60;52.70;;;;;;4860454;29;19928;-71
2021/07/12 16:12:09;;;;;;;;;;;21.60;53.30;;;;;;4874459;29;20486;-71
2021/07/12 16:14:35;;;;;;;;;;;21.60;53.50;;;;;;4855534;29;20016;-71
2021/07/12 16:17:02;;;;;;;;;;;21.60;52.30;;;;;;4857596;29;20014;-71
2021/07/12 16:19:28;;;;;;;;;;;21.60;52.80;;;;;;4860305;29;19931;-71
2021/07/12 16:21:55;;;;;;;;;;;21.60;52.30;;;;;;4860104;29;19931;-71
2021/07/12 16:24:23;;;;;;;;;;;21.50;53.10;;;;;;4848081;29;19944;-71
2021/07/12 16:26:50;;;;;;;;;;;21.50;53.50;;;;;;4860259;29;20006;-71
2021/07/12 16:29:20;;;;;;;;;;;21.50;53.00;;;;;;4846848;29;20356;-71
2021/07/12 16:31:46;;;;;;;;;;;21.40;54.60;;;;;;4846073;29;20010;-71
2021/07/12 16:34:13;;;;;;;;;;;21.30;53.70;;;;;;4855364;29;19972;-71
2021/07/12 16:36:40;;;;;;;;;;;21.20;54.20;;;;;;4860639;29;19931;-71
2021/07/12 16:39:07;;;;;;;;;;;21.20;54.70;;;;;;4857871;29;19984;-71
2021/07/12 16:41:35;;;;;;;;;;;21.10;54.50;;;;;;4849209;29;20424;-71
2021/07/12 16:44:05;;;;;;;;;;;21.10;55.30;;;;;;4852047;29;19924;-71
2021/07/12 16:46:31;;;;;;;;;;;21.10;55.40;;;;;;4859733;29;19928;-71
2021/07/12 16:48:57;;;;;;;;;;;21.10;54.90;;;;;;4853114;29;20332;-71
2021/07/12 16:51:24;;;;;;;;;;;21.10;55.50;;;;;;4856521;29;19928;-71
2021/07/12 16:53:50;;;;;;;;;;;21.10;55.80;;;;;;4860434;29;20061;-71
2021/07/12 16:56:16;;;;;;;;;;;21.10;55.60;;;;;;4859213;29;20826;-71
2021/07/12 16:58:43;;;;;;;;;;;21.10;55.70;;;;;;4860443;29;19924;-71
2021/07/12 17:01:09;;;;;;;;;;;21.10;56.20;;;;;;4849945;29;20015;-71
2021/07/12 17:03:35;;;;;;;;;;;21.10;55.80;;;;;;4846284;29;20072;-71
2021/07/12 17:06:03;;;;;;;;;;;21.10;55.80;;;;;;4841064;29;19928;-71
2021/07/12 17:08:30;;;;;;;;;;;21.10;55.30;;;;;;4857108;29;19924;-71
2021/07/12 17:10:56;;;;;;;;;;;21.10;55.40;;;;;;4860559;29;20011;-71
2021/07/12 17:13:22;;;;;;;;;;;21.00;55.30;;;;;;4863519;29;20301;-71
2021/07/12 17:15:48;;;;;;;;;;;21.00;55.40;;;;;;4859829;29;20068;-71
2021/07/12 17:18:14;;;;;;;;;;;20.90;55.80;;;;;;4859220;29;20011;-72
2021/07/12 17:20:40;;;;;;;;;;;20.90;55.60;;;;;;4859677;29;19931;-71
2021/07/12 17:23:07;;;;;;;;;;;20.80;55.00;;;;;;4854758;29;19931;-73
2021/07/12 17:25:33;;;;;;;;;;;20.80;54.40;;;;;;4859664;29;20195;-71
2021/07/12 17:28:00;;;;;;;;;;;20.80;53.50;;;;;;4855016;29;20077;-72
2021/07/12 17:30:28;;;;;;;;;;;20.80;53.30;;;;;;4843903;29;19928;-72
2021/07/12 17:32:55;;;;;;;;;;;20.80;53.10;;;;;;4857123;29;20007;-72
2021/07/12 17:35:21;;;;;;;;;;;20.80;52.30;;;;;;4848165;29;20440;-73
2021/07/12 17:37:47;;;;;;;;;;;20.80;52.90;;;;;;4849261;29;19972;-73
2021/07/12 17:40:14;;;;;;;;;;;20.80;52.40;;;;;;4843136;29;20007;-72
2021/07/12 17:42:41;;;;;;;;;;;20.80;53.40;;;;;;4845858;29;20019;-73
2021/07/12 17:45:07;;;;;;;;;;;20.70;54.90;;;;;;4849775;29;19980;-73
2021/07/12 17:47:34;;;;;;;;;;;20.70;55.70;;;;;;4850690;29;19932;-70
2021/07/12 17:50:03;;;;;;;;;;;20.80;55.10;;;;;;4855407;29;19924;-72
2021/07/12 17:52:30;;;;;;;;;;;20.70;55.70;;;;;;4844462;29;19925;-72
2021/07/12 17:54:57;;;;;;;;;;;20.80;56.40;;;;;;4846739;29;20053;-72
2021/07/12 17:57:24;;;;;;;;;;;20.80;56.50;;;;;;4843663;29;20019;-73
2021/07/12 17:59:50;;;;;;;;;;;20.80;56.60;;;;;;4842070;29;19924;-75
2021/07/12 18:02:17;;;;;;;;;;;20.80;56.90;;;;;;4844017;29;20064;-74
2021/07/12 18:04:45;;;;;;;;;;;20.80;57.20;;;;;;4845511;29;20431;-75
2021/07/12 18:07:11;;;;;;;;;;;20.70;56.50;;;;;;4859000;29;20015;-71
2021/07/12 18:09:37;;;;;;;;;;;20.60;56.90;;;;;;4856326;29;20083;-70
2021/07/12 18:12:04;;;;;;;;;;;20.50;57.20;;;;;;4852520;29;19928;-71
2021/07/12 18:14:30;;;;;;;;;;;20.30;57.70;;;;;;4841725;29;19925;-71
2021/07/12 18:16:56;;;;;;;;;;;20.20;58.40;;;;;;4840271;29;19928;-71
2021/07/12 18:19:22;;;;;;;;;;;20.10;59.00;;;;;;4840693;29;19924;-71
2021/07/12 18:21:48;;;;;;;;;;;20.00;59.40;;;;;;4842388;29;19925;-71
2021/07/12 18:24:17;;;;;;;;;;;20.00;59.80;;;;;;4841512;29;20012;-71
2021/07/12 18:26:44;;;;;;;;;;;20.00;59.90;;;;;;4858088;29;19936;-70
2021/07/12 18:29:10;;;;;;;;;;;19.90;59.90;;;;;;4844967;29;19939;-71
2021/07/12 18:31:36;;;;;;;;;;;19.90;60.30;;;;;;4844749;29;20377;-70
2021/07/12 18:34:02;;;;;;;;;;;19.90;60.40;;;;;;4843453;29;19947;-70
2021/07/12 18:36:29;;;;;;;;;;;19.80;61.10;;;;;;4845926;29;19931;-71
2021/07/12 18:38:55;;;;;;;;;;;19.70;60.80;;;;;;4845338;29;20420;-71
2021/07/12 18:41:21;;;;;;;;;;;19.60;61.30;;;;;;4844722;29;19976;-71
2021/07/12 18:43:47;;;;;;;;;;;19.60;61.70;;;;;;4844471;29;19925;-71
2021/07/12 18:46:13;;;;;;;;;;;19.60;61.10;;;;;;4845541;29;19931;-71
2021/07/12 18:48:40;;;;;;;;;;;19.50;61.50;;;;;;4847898;29;19986;-71
2021/07/12 18:51:06;;;;;;;;;;;19.50;61.40;;;;;;4844521;29;20308;-70
2021/07/12 18:53:32;;;;;;;;;;;19.40;61.40;;;;;;4842737;29;21144;-71
2021/07/12 18:55:59;;;;;;;;;;;19.40;62.10;;;;;;4846576;29;19928;-71
2021/07/12 18:58:25;;;;;;;;;;;19.30;61.40;;;;;;4844058;29;19924;-70
2021/07/12 19:00:51;;;;;;;;;;;19.30;61.70;;;;;;4860619;29;19927;-70
2021/07/12 19:03:17;;;;;;;;;;;19.30;61.80;;;;;;4848443;29;19924;-70
2021/07/12 19:05:43;;;;;;;;;;;19.20;61.60;;;;;;4844041;29;19924;-70
2021/07/12 19:08:10;;;;;;;;;;;19.20;61.80;;;;;;4856219;29;19924;-70
2021/07/12 19:10:36;;;;;;;;;;;19.20;62.20;;;;;;4861310;29;19931;-70
2021/07/12 19:13:02;;;;;;;;;;;19.20;62.40;;;;;;4846309;29;20278;-73
2021/07/12 19:15:29;;;;;;;;;;;19.10;62.70;;;;;;4858771;29;20062;-71
2021/07/12 19:17:55;;;;;;;;;;;19.10;63.20;;;;;;4855847;29;20018;-70
2021/07/12 19:20:26;;;;;;;;;;;19.10;63.80;;;;;;4852068;29;19995;-70
2021/07/12 19:22:52;;;;;;;;;;;19.20;64.50;;;;;;4855231;29;19982;-70
2021/07/12 19:25:20;;;;;;;;;;;19.20;64.90;;;;;;4852730;29;19924;-70
2021/07/12 19:27:47;;;;;;;;;;;19.10;65.70;;;;;;4844412;29;20373;-70
2021/07/12 19:30:14;;;;;;;;;;;19.10;65.50;;;;;;4849996;29;20018;-70
2021/07/12 19:32:40;;;;;;;;;;;19.00;65.50;;;;;;4857281;29;19928;-71
2021/07/12 19:35:07;;;;;;;;;;;19.00;65.80;;;;;;4857432;29;19928;-71
2021/07/12 19:37:35;;;;;;;;;;;18.90;66.00;;;;;;4850738;29;20426;-71
2021/07/12 19:40:08;;;;;;;;;;;18.90;66.10;;;;;;4853138;29;19928;-71
2021/07/12 19:42:35;;;;;;;;;;;18.90;66.20;;;;;;4855458;29;19975;-71
2021/07/12 19:45:03;;;;;;;;;;;18.80;66.70;;;;;;4856092;29;20464;-70
2021/07/12 19:47:29;;;;;;;;;;;18.80;66.80;;;;;;4857433;29;19971;-70
2021/07/12 19:49:59;;;;;;;;;;;18.80;66.90;;;;;;4856946;29;20431;-71
2021/07/12 19:52:26;;;;;;;;;;;18.80;66.20;;;;;;4855798;29;20356;-70
2021/07/12 19:54:52;;;;;;;;;;;18.80;66.20;;;;;;4857745;29;19997;-71
2021/07/12 19:57:18;;;;;;;;;;;18.80;66.30;;;;;;4857174;29;20060;-71
2021/07/12 19:59:44;;;;;;;;;;;18.80;66.20;;;;;;4857874;29;20007;-74
2021/07/12 20:02:10;;;;;;;;;;;18.80;65.70;;;;;;4858021;29;19928;-71
2021/07/12 20:04:37;;;;;;;;;;;18.70;66.00;;;;;;4856702;29;19932;-71
2021/07/12 20:07:03;;;;;;;;;;;18.60;66.20;;;;;;4857091;29;19927;-71
2021/07/12 20:09:29;;;;;;;;;;;18.50;66.60;;;;;;4856732;29;19935;-71
2021/07/12 20:11:55;;;;;;;;;;;18.50;66.80;;;;;;4858306;29;20022;-71
2021/07/12 20:14:21;;;;;;;;;;;18.50;66.90;;;;;;4856691;29;19950;-71
2021/07/12 20:16:48;;;;;;;;;;;18.50;67.10;;;;;;4856633;29;20009;-70
2021/07/12 20:19:15;;;;;;;;;;;18.40;67.40;;;;;;4856872;29;19976;-71
2021/07/12 20:21:41;;;;;;;;;;;18.40;68.40;;;;;;4857279;29;19928;-71
2021/07/12 20:24:07;;;;;;;;;;;18.40;67.60;;;;;;4856130;29;19928;-71